createdAt,value
2023-02-09T00:01:50.461Z,67.34
2023-02-09T00:04:19.033Z,67.26
2023-02-09T00:06:47.573Z,67.31
2023-02-09T00:09:17.972Z,67.18
2023-02-09T00:12:03.616Z,67.42
2023-02-09T00:14:34.221Z,67.39
2023-02-09T00:17:03.675Z,67.22
2023-02-09T00:19:33.426Z,67.37
2023-02-09T00:22:02.285Z,67.92
2023-02-09T00:24:32.249Z,67.71
2023-02-09T00:27:00.841Z,67.67
2023-02-09T00:29:30.539Z,68.18
2023-02-09T00:31:59.087Z,68.18
2023-02-09T00:34:31.697Z,68.35
2023-02-09T00:37:00.325Z,68.25
2023-02-09T00:39:29.415Z,68.06
2023-02-09T00:42:11.189Z,68.10
2023-02-09T00:44:41.918Z,68.05
2023-02-09T00:47:11.118Z,67.98
2023-02-09T00:49:40.661Z,67.79
2023-02-09T00:52:10.114Z,67.88
2023-02-09T00:54:39.014Z,67.70
2023-02-09T00:57:09.055Z,67.85
2023-02-09T00:59:40.904Z,67.87
2023-02-09T01:02:10.511Z,68.08
2023-02-09T01:04:40.447Z,67.51
2023-02-09T01:07:09.421Z,67.96
2023-02-09T01:09:38.134Z,67.67
2023-02-09T01:12:10.374Z,68.19
2023-02-09T01:14:40.110Z,68.16
2023-02-09T01:17:08.741Z,67.78
2023-02-09T01:19:37.639Z,67.59
2023-02-09T01:22:06.309Z,67.78
2023-02-09T01:24:34.910Z,67.38
2023-02-09T01:27:03.500Z,67.47
2023-02-09T01:29:34.539Z,67.27
2023-02-09T01:32:03.311Z,67.52
2023-02-09T01:34:31.934Z,67.15
2023-02-09T01:37:00.483Z,67.54
2023-02-09T01:39:29.688Z,67.26
2023-02-09T01:41:58.297Z,67.09
2023-02-09T01:45:18.162Z,67.31
2023-02-09T01:47:52.424Z,68.20
2023-02-09T01:50:21.919Z,67.70
2023-02-09T01:52:51.198Z,67.81
2023-02-09T01:55:23.896Z,67.04
2023-02-09T01:57:56.838Z,67.41
2023-02-09T02:00:27.892Z,67.38
2023-02-09T02:03:01.376Z,66.85
2023-02-09T02:05:32.651Z,67.22
2023-02-09T02:08:05.869Z,66.91
2023-02-09T02:10:34.598Z,67.23
2023-02-09T02:13:04.470Z,67.25
2023-02-09T02:15:42.703Z,67.06
2023-02-09T02:18:31.869Z,67.71
2023-02-09T02:21:44.814Z,67.30
2023-02-09T02:24:55.531Z,67.56
2023-02-09T02:27:32.985Z,67.39
2023-02-09T02:30:20.309Z,67.37
2023-02-09T02:32:56.921Z,68.19
2023-02-09T02:35:35.380Z,68.25
2023-02-09T02:38:13.501Z,68.14
2023-02-09T02:40:51.196Z,68.14
2023-02-09T02:43:31.077Z,67.76
2023-02-09T02:46:03.755Z,67.82
2023-02-09T02:48:37.796Z,67.95
2023-02-09T02:51:09.344Z,68.65
2023-02-09T02:53:42.283Z,68.46
2023-02-09T02:56:14.089Z,68.47
2023-02-09T02:58:45.604Z,68.25
2023-02-09T03:01:19.730Z,67.73
2023-02-09T03:03:51.877Z,67.56
2023-02-09T03:06:20.465Z,67.98
2023-02-09T03:08:54.351Z,67.71
2023-02-09T03:11:25.058Z,68.05
2023-02-09T03:14:07.290Z,67.69
2023-02-09T03:16:41.587Z,67.97
2023-02-09T03:19:20.576Z,67.67
2023-02-09T03:21:52.849Z,67.43
2023-02-09T03:24:32.141Z,67.38
2023-02-09T03:27:08.207Z,67.37
2023-02-09T03:29:38.298Z,67.45
2023-02-09T03:32:08.249Z,67.46
2023-02-09T03:34:38.315Z,67.41
2023-02-09T03:37:07.311Z,67.54
2023-02-09T03:39:35.949Z,67.63
2023-02-09T03:42:04.516Z,67.76
2023-02-09T03:44:33.024Z,67.96
2023-02-09T03:47:03.244Z,67.84
2023-02-09T03:49:33.946Z,67.76
2023-02-09T03:52:04.885Z,67.80
2023-02-09T03:54:34.587Z,67.70
2023-02-09T03:57:03.410Z,67.44
2023-02-09T03:59:35.513Z,67.73
2023-02-09T04:02:05.593Z,67.32
2023-02-09T04:04:34.520Z,67.75
2023-02-09T04:07:04.608Z,67.72
2023-02-09T04:09:33.221Z,67.81
2023-02-09T04:12:01.756Z,67.38
2023-02-09T04:14:30.294Z,67.27
2023-02-09T04:16:58.745Z,68.33
2023-02-09T04:19:28.146Z,67.96
2023-02-09T04:21:56.658Z,68.00
2023-02-09T04:24:30.607Z,67.90
2023-02-09T04:26:59.105Z,68.27
2023-02-09T04:29:28.211Z,67.66
2023-02-09T04:31:56.722Z,67.09
2023-02-09T04:34:26.182Z,67.67
2023-02-09T04:36:55.002Z,67.69
2023-02-09T04:39:23.563Z,67.22
2023-02-09T04:41:53.451Z,67.50
2023-02-09T04:44:21.954Z,67.60
2023-02-09T04:46:51.434Z,67.74
2023-02-09T04:49:19.936Z,67.88
2023-02-09T04:51:48.582Z,67.88
2023-02-09T04:54:17.013Z,68.14
2023-02-09T04:56:45.511Z,68.10
2023-02-09T04:59:32.527Z,68.18
2023-02-09T05:02:01.478Z,68.02
2023-02-09T05:04:29.909Z,68.25
2023-02-09T05:06:58.457Z,68.38
2023-02-09T05:09:28.104Z,68.04
2023-02-09T05:11:56.627Z,67.91
2023-02-09T05:14:28.077Z,67.68
2023-02-09T05:16:56.628Z,68.50
2023-02-09T05:19:25.189Z,68.33
2023-02-09T05:21:54.563Z,68.39
2023-02-09T05:24:23.077Z,68.27
2023-02-09T05:26:51.711Z,68.69
2023-02-09T05:29:22.001Z,68.37
2023-02-09T05:31:52.413Z,67.88
2023-02-09T05:34:20.949Z,67.88
2023-02-09T05:36:49.521Z,67.61
2023-02-09T05:39:18.105Z,67.81
2023-02-09T05:42:05.235Z,67.99
2023-02-09T05:44:33.752Z,67.88
2023-02-09T05:47:03.646Z,67.95
2023-02-09T05:49:32.157Z,68.35
2023-02-09T05:52:00.784Z,68.42
2023-02-09T05:54:30.120Z,68.38
2023-02-09T05:56:58.693Z,68.14
2023-02-09T05:59:28.088Z,67.88
2023-02-09T06:01:56.579Z,68.06
2023-02-09T06:04:27.676Z,68.14
2023-02-09T06:06:56.986Z,67.66
2023-02-09T06:09:26.316Z,67.86
2023-02-09T06:11:55.087Z,67.96
2023-02-09T06:14:23.885Z,68.04
2023-02-09T06:16:52.509Z,68.28
2023-02-09T06:19:22.296Z,68.43
2023-02-09T06:21:52.265Z,68.50
2023-02-09T06:24:20.759Z,68.32
2023-02-09T06:26:49.367Z,68.44
2023-02-09T06:29:17.867Z,68.45
2023-02-09T06:31:46.670Z,68.50
2023-02-09T06:34:15.526Z,68.42
2023-02-09T06:36:44.033Z,68.75
2023-02-09T06:39:14.034Z,68.16
2023-02-09T06:41:42.606Z,68.09
2023-02-09T06:44:12.199Z,68.56
2023-02-09T06:46:40.967Z,68.44
2023-02-09T06:49:09.584Z,68.92
2023-02-09T06:51:38.427Z,68.74
2023-02-09T06:54:07.306Z,68.82
2023-02-09T06:56:37.374Z,68.46
2023-02-09T06:59:05.858Z,68.92
2023-02-09T07:01:34.469Z,69.12
2023-02-09T07:04:03.367Z,69.11
2023-02-09T07:06:32.074Z,69.09
2023-02-09T07:09:00.607Z,69.00
2023-02-09T07:11:30.660Z,68.54
2023-02-09T07:14:00.993Z,68.53
2023-02-09T07:16:29.786Z,68.14
2023-02-09T07:19:00.465Z,68.20
2023-02-09T07:21:29.029Z,68.02
2023-02-09T07:23:57.543Z,68.27
2023-02-09T07:26:26.227Z,68.25
2023-02-09T07:28:55.933Z,68.52
2023-02-09T07:31:27.370Z,68.71
2023-02-09T07:33:56.011Z,68.69
2023-02-09T07:36:24.897Z,68.65
2023-02-09T07:38:53.736Z,68.83
2023-02-09T07:41:25.438Z,68.70
2023-02-09T07:43:54.835Z,69.06
2023-02-09T07:46:25.719Z,69.54
2023-02-09T07:48:59.486Z,69.91
2023-02-09T07:51:30.477Z,69.21
2023-02-09T07:54:00.548Z,69.33
2023-02-09T07:56:29.976Z,69.54
2023-02-09T07:58:58.789Z,69.29
2023-02-09T08:01:27.442Z,69.04
2023-02-09T08:03:57.454Z,67.83
2023-02-09T08:06:41.303Z,66.32
2023-02-09T08:09:11.367Z,65.10
2023-02-09T08:11:45.797Z,65.71
2023-02-09T08:14:17.597Z,64.40
2023-02-09T08:16:46.708Z,63.41
2023-02-09T08:19:21.010Z,62.54
2023-02-09T08:21:50.947Z,62.50
2023-02-09T08:24:21.303Z,61.95
2023-02-09T08:26:49.855Z,61.21
2023-02-09T08:29:18.414Z,61.11
2023-02-09T08:31:47.117Z,60.46
2023-02-09T08:34:17.242Z,59.45
2023-02-09T08:36:45.825Z,58.62
2023-02-09T08:39:14.314Z,58.30
2023-02-09T08:41:44.082Z,57.52
2023-02-09T08:44:14.053Z,57.91
2023-02-09T08:46:46.803Z,58.07
2023-02-09T08:49:16.976Z,57.65
2023-02-09T08:51:47.189Z,56.75
2023-02-09T08:54:16.112Z,57.37
2023-02-09T08:56:44.626Z,57.33
2023-02-09T08:59:13.712Z,57.67
2023-02-09T09:01:42.740Z,57.80
2023-02-09T09:04:11.312Z,57.68
2023-02-09T09:06:41.636Z,58.15
2023-02-09T09:09:10.190Z,57.97
2023-02-09T09:11:38.727Z,57.73
2023-02-09T09:14:07.411Z,56.28
2023-02-09T09:16:36.026Z,56.48
2023-02-09T09:19:05.812Z,56.53
2023-02-09T09:21:34.968Z,56.63
2023-02-09T09:24:05.562Z,56.78
2023-02-09T09:26:35.224Z,56.86
2023-02-09T09:29:04.165Z,56.42
2023-02-09T09:31:33.652Z,56.29
2023-02-09T09:34:02.298Z,55.53
2023-02-09T09:36:30.987Z,55.29
2023-02-09T09:38:59.951Z,54.98
2023-02-09T09:41:32.999Z,55.34
2023-02-09T09:44:02.742Z,55.61
2023-02-09T09:46:37.221Z,55.96
2023-02-09T09:49:07.144Z,55.71
2023-02-09T09:51:41.040Z,55.62
2023-02-09T09:54:15.432Z,55.94
2023-02-09T09:56:45.591Z,55.41
2023-02-09T09:59:18.877Z,55.51
2023-02-09T10:01:48.478Z,55.93
2023-02-09T10:04:17.600Z,55.60
2023-02-09T10:06:48.789Z,55.28
2023-02-09T10:09:30.429Z,55.42
2023-02-09T10:12:09.400Z,55.27
2023-02-09T10:14:37.983Z,55.22
2023-02-09T10:17:07.718Z,54.86
2023-02-09T10:19:36.451Z,54.96
2023-02-09T10:22:05.385Z,53.85
2023-02-09T10:24:36.443Z,54.20
2023-02-09T10:27:10.995Z,53.90
2023-02-09T10:29:39.613Z,53.50
2023-02-09T10:32:16.752Z,52.10
2023-02-09T10:34:48.893Z,50.65
2023-02-09T10:37:23.451Z,51.73
2023-02-09T10:40:07.829Z,51.14
2023-02-09T10:42:40.573Z,50.23
2023-02-09T10:45:15.953Z,49.40
2023-02-09T10:47:57.742Z,48.99
2023-02-09T10:50:26.387Z,47.58
2023-02-09T10:53:01.185Z,46.56
2023-02-09T10:55:35.813Z,44.69
2023-02-09T10:58:18.578Z,44.90
2023-02-09T11:00:52.264Z,44.80
2023-02-09T11:03:25.476Z,43.04
2023-02-09T11:06:02.891Z,43.08
2023-02-09T11:08:45.074Z,42.85
2023-02-09T11:11:30.279Z,42.03
2023-02-09T11:14:01.107Z,42.02
2023-02-09T11:16:52.210Z,41.51
2023-02-09T11:19:52.776Z,42.24
2023-02-09T11:22:33.670Z,42.58
2023-02-09T11:25:12.527Z,42.50
2023-02-09T11:27:58.707Z,41.21
2023-02-09T11:30:45.885Z,41.42
2023-02-09T11:33:22.111Z,41.32
2023-02-09T11:36:01.162Z,40.37
2023-02-09T11:38:38.224Z,40.26
2023-02-09T11:41:26.825Z,40.34
2023-02-09T11:43:59.628Z,39.70
2023-02-09T11:46:32.249Z,39.69
2023-02-09T11:49:06.011Z,40.36
2023-02-09T11:51:38.591Z,39.79
2023-02-09T11:54:15.765Z,39.17
2023-02-09T11:56:48.356Z,39.52
2023-02-09T11:59:23.839Z,39.63
2023-02-09T12:02:03.308Z,40.81
2023-02-09T12:04:41.108Z,41.07
2023-02-09T12:07:16.585Z,40.66
2023-02-09T12:09:52.933Z,40.22
2023-02-09T12:12:27.276Z,39.97
2023-02-09T12:15:02.912Z,39.95
2023-02-09T12:17:41.203Z,39.85
2023-02-09T12:20:25.119Z,39.38
2023-02-09T12:23:01.883Z,39.57
2023-02-09T12:25:53.237Z,39.72
2023-02-09T12:28:44.794Z,40.43
2023-02-09T12:31:23.205Z,39.57
2023-02-09T12:34:29.090Z,39.43
2023-02-09T12:37:20.000Z,40.15
2023-02-09T12:40:23.953Z,39.99
2023-02-09T12:43:29.362Z,39.23
2023-02-09T12:46:20.304Z,39.01
2023-02-09T12:48:51.767Z,38.97
2023-02-09T12:51:49.040Z,39.37
2023-02-09T12:54:40.290Z,38.70
2023-02-09T12:57:56.579Z,38.43
2023-02-09T13:00:42.697Z,38.71
2023-02-09T13:03:19.680Z,39.06
2023-02-09T13:05:49.282Z,39.05
2023-02-09T13:08:33.078Z,39.25
2023-02-09T13:11:06.788Z,39.48
2023-02-09T13:13:44.423Z,38.77
2023-02-09T13:16:45.218Z,39.48
2023-02-09T13:19:31.813Z,39.58
2023-02-09T13:22:21.429Z,39.41
2023-02-09T13:25:01.183Z,39.73
2023-02-09T13:27:30.967Z,39.95
2023-02-09T13:30:00.781Z,39.54
2023-02-09T13:32:40.959Z,39.55
2023-02-09T13:35:20.591Z,39.39
2023-02-09T13:37:52.604Z,39.32
2023-02-09T13:40:25.620Z,39.30
2023-02-09T13:42:57.906Z,39.28
2023-02-09T13:45:28.299Z,39.20
2023-02-09T13:47:59.384Z,38.96
2023-02-09T13:50:29.599Z,38.41
2023-02-09T13:53:10.531Z,38.17
2023-02-09T13:55:40.980Z,38.53
2023-02-09T13:58:15.847Z,38.85
2023-02-09T14:00:46.622Z,39.10
2023-02-09T14:03:19.517Z,39.09
2023-02-09T14:05:52.729Z,39.82
2023-02-09T14:08:23.567Z,40.32
2023-02-09T14:10:58.724Z,40.08
2023-02-09T14:13:31.204Z,40.26
2023-02-09T14:16:08.072Z,39.84
2023-02-09T14:18:46.612Z,39.49
2023-02-09T14:21:19.597Z,39.44
2023-02-09T14:23:49.823Z,40.04
2023-02-09T14:26:24.229Z,40.40
2023-02-09T14:28:56.439Z,40.67
2023-02-09T14:31:26.991Z,40.30
2023-02-09T14:33:57.659Z,40.09
2023-02-09T14:36:32.588Z,39.63
2023-02-09T14:39:16.827Z,39.89
2023-02-09T14:41:59.485Z,39.69
2023-02-09T14:44:29.271Z,40.20
2023-02-09T14:46:59.466Z,40.06
2023-02-09T14:49:29.524Z,40.41
2023-02-09T14:52:04.839Z,40.00
2023-02-09T14:54:36.185Z,39.86
2023-02-09T14:57:06.157Z,39.93
2023-02-09T14:59:34.815Z,39.66
2023-02-09T15:02:03.436Z,39.55
2023-02-09T15:04:32.025Z,39.45
2023-02-09T15:07:04.247Z,39.45
2023-02-09T15:09:38.238Z,39.30
2023-02-09T15:12:09.484Z,39.64
2023-02-09T15:14:44.175Z,39.51
2023-02-09T15:17:17.940Z,39.67
2023-02-09T15:19:47.263Z,39.57
2023-02-09T15:22:16.989Z,39.54
2023-02-09T15:24:46.795Z,39.81
2023-02-09T15:27:24.258Z,39.79
2023-02-09T15:29:53.157Z,39.80
2023-02-09T15:32:23.781Z,40.26
2023-02-09T15:34:54.251Z,40.29
2023-02-09T15:37:27.104Z,39.65
2023-02-09T15:39:59.989Z,39.90
2023-02-09T15:42:47.016Z,40.15
2023-02-09T15:45:36.081Z,40.16
2023-02-09T15:48:05.400Z,39.64
2023-02-09T15:50:35.601Z,39.19
2023-02-09T15:53:07.255Z,39.08
2023-02-09T15:55:37.450Z,39.70
2023-02-09T15:58:14.263Z,39.49
2023-02-09T16:00:43.012Z,39.54
2023-02-09T16:03:16.634Z,39.46
2023-02-09T16:05:46.552Z,38.83
2023-02-09T16:08:21.077Z,39.46
2023-02-09T16:10:49.929Z,39.26
2023-02-09T16:13:21.558Z,39.88
2023-02-09T16:15:50.194Z,40.16
2023-02-09T16:18:18.784Z,39.90
2023-02-09T16:20:49.084Z,40.03
2023-02-09T16:23:21.331Z,40.46
2023-02-09T16:25:51.671Z,40.88
2023-02-09T16:28:22.706Z,41.11
2023-02-09T16:30:53.622Z,41.04
2023-02-09T16:33:23.646Z,41.04
2023-02-09T16:35:55.239Z,41.94
2023-02-09T16:38:25.860Z,41.94
2023-02-09T16:40:56.029Z,42.57
2023-02-09T16:43:26.427Z,43.24
2023-02-09T16:46:03.271Z,43.47
2023-02-09T16:48:34.741Z,43.30
2023-02-09T16:51:03.887Z,44.59
2023-02-09T16:53:36.527Z,44.31
2023-02-09T16:56:10.288Z,45.17
2023-02-09T16:58:40.556Z,46.72
2023-02-09T17:01:17.066Z,46.46
2023-02-09T17:03:50.500Z,46.84
2023-02-09T17:06:21.436Z,47.86
2023-02-09T17:08:50.467Z,48.78
2023-02-09T17:11:22.801Z,48.81
2023-02-09T17:13:52.818Z,49.33
2023-02-09T17:16:24.182Z,50.47
2023-02-09T17:18:55.014Z,51.41
2023-02-09T17:21:26.031Z,51.62
2023-02-09T17:23:55.552Z,51.66
2023-02-09T17:26:23.973Z,51.43
2023-02-09T17:28:54.172Z,51.52
2023-02-09T17:31:25.407Z,51.68
2023-02-09T17:33:57.050Z,52.47
2023-02-09T17:36:28.398Z,52.54
2023-02-09T17:38:58.910Z,53.11
2023-02-09T17:41:32.990Z,53.98
2023-02-09T17:44:24.054Z,53.55
2023-02-09T17:46:57.829Z,54.26
2023-02-09T17:49:27.076Z,53.88
2023-02-09T17:51:55.943Z,53.17
2023-02-09T17:54:24.566Z,54.05
2023-02-09T17:56:53.154Z,54.33
2023-02-09T17:59:23.230Z,54.45
2023-02-09T18:01:55.368Z,54.90
2023-02-09T18:04:27.461Z,54.21
2023-02-09T18:06:57.751Z,54.95
2023-02-09T18:09:27.113Z,54.94
2023-02-09T18:12:02.333Z,55.53
2023-02-09T18:14:34.204Z,55.43
2023-02-09T18:17:03.194Z,54.84
2023-02-09T18:19:33.192Z,56.39
2023-02-09T18:22:03.152Z,55.90
2023-02-09T18:24:34.472Z,55.51
2023-02-09T18:27:03.495Z,56.32
2023-02-09T18:29:33.493Z,55.91
2023-02-09T18:32:03.580Z,56.92
2023-02-09T18:34:32.456Z,56.18
2023-02-09T18:37:00.977Z,57.20
2023-02-09T18:39:30.874Z,56.74
2023-02-09T18:41:59.356Z,57.88
2023-02-09T18:44:31.427Z,58.06
2023-02-09T18:47:02.108Z,57.98
2023-02-09T18:49:31.768Z,57.63
2023-02-09T18:52:01.036Z,57.63
2023-02-09T18:54:31.359Z,57.80
2023-02-09T18:57:00.067Z,57.74
2023-02-09T18:59:32.361Z,58.32
2023-02-09T19:02:02.778Z,58.16
2023-02-09T19:04:31.238Z,59.09
2023-02-09T19:07:00.609Z,58.77
2023-02-09T19:09:29.866Z,58.79
2023-02-09T19:11:58.343Z,59.18
2023-02-09T19:14:38.823Z,58.69
2023-02-09T19:17:10.809Z,58.27
2023-02-09T19:19:40.084Z,58.49
2023-02-09T19:22:09.199Z,58.59
2023-02-09T19:24:38.289Z,58.84
2023-02-09T19:27:09.537Z,59.45
2023-02-09T19:29:39.238Z,59.12
2023-02-09T19:32:09.367Z,59.93
2023-02-09T19:34:41.192Z,60.12
2023-02-09T19:37:11.595Z,60.54
2023-02-09T19:39:41.553Z,61.24
2023-02-09T19:42:11.508Z,61.48
2023-02-09T19:44:40.287Z,61.71
2023-02-09T19:47:10.277Z,61.90
2023-02-09T19:49:39.237Z,61.83
2023-02-09T19:52:08.035Z,61.04
2023-02-09T19:54:36.519Z,56.90
2023-02-09T19:57:05.773Z,58.70
2023-02-09T19:59:34.525Z,59.45
2023-02-09T20:02:03.089Z,60.01
2023-02-09T20:04:34.347Z,60.60
2023-02-09T20:07:03.830Z,60.82
2023-02-09T20:09:32.303Z,61.38
2023-02-09T20:12:00.907Z,62.02
2023-02-09T20:14:31.748Z,62.34
2023-02-09T20:17:02.125Z,62.92
2023-02-09T20:19:32.334Z,63.05
2023-02-09T20:22:00.947Z,63.53
2023-02-09T20:24:30.504Z,63.21
2023-02-09T20:27:00.203Z,63.07
2023-02-09T20:29:29.540Z,63.00
2023-02-09T20:31:58.322Z,62.81
2023-02-09T20:34:27.285Z,62.87
2023-02-09T20:36:57.668Z,62.93
2023-02-09T20:39:26.482Z,62.73
2023-02-09T20:42:15.922Z,63.16
2023-02-09T20:45:02.651Z,63.20
2023-02-09T20:47:31.231Z,63.57
2023-02-09T20:50:00.799Z,63.62
2023-02-09T20:52:31.415Z,63.54
2023-02-09T20:54:59.979Z,63.68
2023-02-09T20:57:31.269Z,63.59
2023-02-09T21:00:00.453Z,63.63
2023-02-09T21:02:29.484Z,63.88
2023-02-09T21:04:59.729Z,63.28
2023-02-09T21:07:28.456Z,63.76
2023-02-09T21:09:58.364Z,63.46
2023-02-09T21:12:27.184Z,63.63
2023-02-09T21:14:56.732Z,64.02
2023-02-09T21:17:25.307Z,64.37
2023-02-09T21:19:53.897Z,64.00
2023-02-09T21:22:22.401Z,64.03
2023-02-09T21:24:50.938Z,64.62
2023-02-09T21:27:20.836Z,64.47
2023-02-09T21:29:49.635Z,64.45
2023-02-09T21:32:18.469Z,64.18
2023-02-09T21:34:47.075Z,64.04
2023-02-09T21:37:15.639Z,64.65
2023-02-09T21:39:44.154Z,64.36
2023-02-09T21:42:30.868Z,64.24
2023-02-09T21:45:01.191Z,64.91
2023-02-09T21:47:31.654Z,64.87
2023-02-09T21:50:00.818Z,64.76
2023-02-09T21:52:31.717Z,65.12
2023-02-09T21:55:00.260Z,65.51
2023-02-09T21:57:29.694Z,65.66
2023-02-09T21:59:59.177Z,65.76
2023-02-09T22:02:29.088Z,65.30
2023-02-09T22:04:57.874Z,65.09
2023-02-09T22:07:26.597Z,64.11
2023-02-09T22:09:55.333Z,64.42
2023-02-09T22:12:23.880Z,64.06
2023-02-09T22:14:52.522Z,64.33
2023-02-09T22:17:21.187Z,65.04
2023-02-09T22:19:51.308Z,64.89
2023-02-09T22:22:19.802Z,65.52
2023-02-09T22:24:48.416Z,65.19
2023-02-09T22:27:17.056Z,65.73
2023-02-09T22:29:46.442Z,65.80
2023-02-09T22:32:15.065Z,66.03
2023-02-09T22:34:43.677Z,65.39
2023-02-09T22:37:13.708Z,65.38
2023-02-09T22:39:42.218Z,65.22
2023-02-09T22:42:10.773Z,65.72
2023-02-09T22:44:39.331Z,65.51
2023-02-09T22:47:07.785Z,65.62
2023-02-09T22:49:36.399Z,65.48
2023-02-09T22:52:05.117Z,65.25
2023-02-09T22:54:35.185Z,65.21
2023-02-09T22:57:03.775Z,66.01
2023-02-09T22:59:32.445Z,66.06
2023-02-09T23:02:00.983Z,66.17
2023-02-09T23:04:32.206Z,66.98
2023-02-09T23:07:00.736Z,66.63
2023-02-09T23:09:30.269Z,67.30
2023-02-09T23:12:00.277Z,66.99
2023-02-09T23:14:29.774Z,66.76
2023-02-09T23:16:59.176Z,67.04
2023-02-09T23:19:29.430Z,66.72
2023-02-09T23:21:57.979Z,66.83
2023-02-09T23:24:27.304Z,66.73
2023-02-09T23:26:56.277Z,66.27
2023-02-09T23:29:26.852Z,66.45
2023-02-09T23:31:56.072Z,66.12
2023-02-09T23:34:25.097Z,66.01
2023-02-09T23:36:53.700Z,66.01
2023-02-09T23:39:25.863Z,65.99
2023-02-09T23:41:54.420Z,66.25
2023-02-09T23:44:23.021Z,66.56
2023-02-09T23:46:53.006Z,66.71
2023-02-09T23:49:22.930Z,66.98
2023-02-09T23:51:51.524Z,66.87
2023-02-09T23:54:20.003Z,67.35
2023-02-09T23:56:50.599Z,67.35
2023-02-09T23:59:19.076Z,67.02
